Hauptseite
METAR-TAF:

METAR-TAF

Flughäfen :

Flughafen Al Hoceima

Al-Hoceima, Marokko

Breite: 35-11N, Länge: 003-51W, Höhe: 27 m

Beobachtung

Neuester Wetterbericht von vor 17 Minuten, um 09:00 UTC
Wind 2 kt aus Südost
Temperatur 12°C
Luftfeuchtigkeit 71%
Luftdruck 1020 hPa
Sichtweite 10 km oder mehr
Leicht bewölkt in der Höhe von 2000 ft, Towering cumulus.

METAR: GMTA 240900Z 14002KT 9999 FEW020TCU 12/07 Q1020 NOSIG

Zeit: 10:17 (09:17 UTC)

Prognose

Neuester Wetterbericht von vor 4 Stunden und 17 Minuten, um 05:00 UTC
Gültige Prognose vom 24 um 06 UTC bis 25 um 12 UTC
Wind 5 kt aus Süd/Südost
Sichtweite 10 km oder mehr
Leicht bewölkt in der Höhe von 2000 ft
Aufgelockert bewölkt in der Höhe von 10000 ft

TAF: GMTA 240500Z 2406/2512 15005KT 9999 FEW020 SCT100

Wetterbeobachtungen und Prognosen von mehr als 4000 Flughäfen (METAR und TAF Bericht).

Die verfügbaren Stationen werden durch gelbe und rote Markierungen auf der Karte dargestellt.

Führen Sie die Maus auf sie, um den Namen der Station zu sehen.

Darauf klicken, um die Beobachtung von Wetterbeobachtungen und Prognosen zu sehen.

Um die Karte zu ändern : klicken Sie auf den grünen Tasten mit einem schwarzen Kreuz Zum Vergrößern, auf den grünen Button mit einem Gedankenstrich zu verkleinern, oder auf die grünen Pfeile für benachbarte Karten.


METAR-TAF: